Time;durP1;ratioP1;P1;durP2;ratioP2;P2;SDS_P1;SDS_P2;PMS_P1;PMS_P2;Temp;Humidity;BMP_temperature;BMP_pressure;BME280_temperature;BME280_humidity;BME280_pressure;Samples;Min_cycle;Max_cycle;Signal;HPM_P1;HPM_P2
2022/12/06 00:01:15;;;;;;;21.95;12.35;;;7.30;99.90;;;;;;5022100;28;20477;-67
2022/12/06 00:03:43;;;;;;;20.45;12.75;;;7.30;99.90;;;;;;5021005;28;20032;-67
2022/12/06 00:06:15;;;;;;;31.65;13.65;;;7.30;99.90;;;;;;5026338;28;20021;-69
2022/12/06 00:08:42;;;;;;;26.75;13.15;;;7.30;99.90;;;;;;5028053;28;20025;-69
2022/12/06 00:11:09;;;;;;;21.05;12.15;;;7.40;99.90;;;;;;5029023;28;20617;-68
2022/12/06 00:13:35;;;;;;;26.73;13.23;;;7.30;99.90;;;;;;5025081;28;20482;-68
2022/12/06 00:16:06;;;;;;;26.25;13.30;;;7.40;99.90;;;;;;5028278;28;20030;-70
2022/12/06 00:18:33;;;;;;;28.30;12.88;;;7.40;99.90;;;;;;5032513;28;20021;-68
2022/12/06 00:21:09;;;;;;;28.00;13.82;;;7.40;99.90;;;;;;5031669;28;20046;-67
2022/12/06 00:23:43;;;;;;;30.08;14.68;;;7.40;99.90;;;;;;5024789;28;20029;-68
2022/12/06 00:26:09;;;;;;;23.67;13.02;;;7.40;99.90;;;;;;5026650;28;20624;-67
2022/12/06 00:28:36;;;;;;;25.98;13.13;;;7.40;99.90;;;;;;5027354;28;20055;-66
2022/12/06 00:31:04;;;;;;;24.77;13.55;;;7.50;99.90;;;;;;5025629;28;20458;-66
2022/12/06 00:33:30;;;;;;;22.90;13.15;;;7.50;99.90;;;;;;5029809;28;20024;-66
2022/12/06 00:36:01;;;;;;;18.30;11.25;;;7.50;99.90;;;;;;5027925;28;20025;-66
2022/12/06 00:38:28;;;;;;;20.10;11.75;;;7.50;99.90;;;;;;5028540;28;20103;-67
2022/12/06 00:41:02;;;;;;;29.42;14.20;;;7.50;99.90;;;;;;5029660;28;20483;-66
2022/12/06 00:43:28;;;;;;;26.00;13.07;;;7.50;99.90;;;;;;5026713;28;20477;-66
2022/12/06 00:45:54;;;;;;;23.40;12.38;;;7.50;99.90;;;;;;5027695;28;20063;-66
2022/12/06 00:48:20;;;;;;;25.17;14.63;;;7.50;99.90;;;;;;5030169;28;20072;-66
2022/12/06 00:50:46;;;;;;;30.15;15.20;;;7.40;99.90;;;;;;5063281;28;20037;-66
2022/12/06 00:53:12;;;;;;;26.77;13.82;;;7.40;99.90;;;;;;5032132;28;20029;-66
2022/12/06 00:55:37;;;;;;;28.88;14.38;;;7.40;99.90;;;;;;5030915;28;20056;-66
2022/12/06 00:58:03;;;;;;;29.65;14.07;;;7.40;99.90;;;;;;5029075;28;20224;-66
2022/12/06 01:00:28;;;;;;;30.67;15.18;;;7.40;99.90;;;;;;5032470;28;20033;-66
2022/12/06 01:02:56;;;;;;;28.08;14.23;;;7.40;99.90;;;;;;5027755;28;20068;-66
2022/12/06 01:05:21;;;;;;;26.23;13.52;;;7.40;99.90;;;;;;5029279;28;20025;-67
2022/12/06 01:07:47;;;;;;;32.55;14.73;;;7.40;99.90;;;;;;5029472;28;20051;-66
2022/12/06 01:10:13;;;;;;;30.02;14.00;;;7.40;99.90;;;;;;5031592;28;20033;-66
2022/12/06 01:12:39;;;;;;;30.38;14.35;;;7.40;99.90;;;;;;5023495;28;20181;-67
2022/12/06 01:15:05;;;;;;;32.58;14.73;;;7.40;99.90;;;;;;5023359;28;20111;-67
2022/12/06 01:17:30;;;;;;;28.80;14.10;;;7.40;99.90;;;;;;5026987;28;20021;-67
2022/12/06 01:19:56;;;;;;;32.97;13.52;;;7.40;99.90;;;;;;5028630;28;20699;-66
2022/12/06 01:22:21;;;;;;;29.70;13.43;;;7.40;99.90;;;;;;5032300;28;20025;-67
2022/12/06 01:24:47;;;;;;;24.58;12.07;;;7.40;99.90;;;;;;5022859;28;20018;-67
2022/12/06 01:27:13;;;;;;;25.67;12.90;;;7.50;99.90;;;;;;5025949;28;20104;-66
2022/12/06 01:29:38;;;;;;;27.77;13.60;;;7.50;99.90;;;;;;5024702;28;20034;-67
2022/12/06 01:32:04;;;;;;;22.42;12.43;;;7.50;99.90;;;;;;5032275;28;20550;-67
2022/12/06 01:34:29;;;;;;;28.35;13.35;;;7.50;99.90;;;;;;5023890;28;20104;-67
2022/12/06 01:36:55;;;;;;;25.42;12.65;;;7.50;99.90;;;;;;5026492;28;20017;-66
2022/12/06 01:39:21;;;;;;;30.88;13.80;;;7.50;99.90;;;;;;5023046;28;20352;-67
2022/12/06 01:41:46;;;;;;;20.98;11.55;;;7.50;99.90;;;;;;5029081;28;20042;-67
2022/12/06 01:44:36;;;;;;;26.40;13.15;;;7.50;99.90;;;;;;5029516;28;20029;-66
2022/12/06 01:47:02;;;;;;;27.92;13.23;;;7.60;99.90;;;;;;5031426;28;20087;-67
2022/12/06 01:49:33;;;;;;;25.00;12.93;;;7.60;99.90;;;;;;5030290;28;20534;-66
2022/12/06 01:52:07;;;;;;;25.52;11.70;;;7.60;99.90;;;;;;5033549;28;20536;-67
2022/12/06 01:54:33;;;;;;;25.50;12.70;;;7.60;99.90;;;;;;5030663;28;20032;-66
2022/12/06 01:57:02;;;;;;;33.72;13.70;;;7.60;99.90;;;;;;5028085;28;20029;-67
2022/12/06 01:59:28;;;;;;;30.35;14.15;;;7.60;99.90;;;;;;5030856;28;20021;-66
2022/12/06 02:01:55;;;;;;;24.05;12.40;;;7.60;99.90;;;;;;5032595;28;20048;-67
2022/12/06 02:04:22;;;;;;;25.33;11.85;;;7.60;99.90;;;;;;5034623;28;20029;-66
2022/12/06 02:06:50;;;;;;;27.45;11.82;;;7.60;99.90;;;;;;5026513;28;20030;-67
2022/12/06 02:09:17;;;;;;;30.25;13.95;;;7.60;99.90;;;;;;5029488;28;20021;-66
2022/12/06 02:11:42;;;;;;;23.75;11.90;;;7.60;99.90;;;;;;5029069;28;20040;-66
2022/12/06 02:14:13;;;;;;;29.65;13.40;;;7.60;99.90;;;;;;5030491;28;20034;-65
2022/12/06 02:16:50;;;;;;;29.92;14.15;;;7.60;99.90;;;;;;5026968;28;20033;-67
2022/12/06 02:19:35;;;;;;;27.38;13.52;;;7.60;99.90;;;;;;5028520;28;20069;-66
2022/12/06 02:22:24;;;;;;;31.83;13.73;;;7.60;99.90;;;;;;5030509;28;20037;-66
2022/12/06 02:25:24;;;;;;;63.08;18.92;;;7.60;99.90;;;;;;5027001;28;20025;-66
2022/12/06 02:27:49;;;;;;;36.78;14.18;;;7.60;99.90;;;;;;4996293;28;20062;-67
2022/12/06 02:30:43;;;;;;;26.23;13.93;;;7.60;99.90;;;;;;5020975;28;20044;-66
2022/12/06 02:33:22;;;;;;;32.33;14.02;;;7.60;99.90;;;;;;5024040;28;20029;-67
2022/12/06 02:36:14;;;;;;;27.15;13.32;;;7.60;99.90;;;;;;5029179;28;20108;-66
2022/12/06 02:38:50;;;;;;;31.65;13.68;;;7.60;99.90;;;;;;5026830;28;20025;-67
2022/12/06 02:41:35;;;;;;;34.35;14.55;;;7.60;99.90;;;;;;5028551;28;20068;-67
2022/12/06 02:44:05;;;;;;;26.77;14.07;;;7.60;99.90;;;;;;5025403;28;20060;-66
2022/12/06 02:46:34;;;;;;;24.25;12.75;;;7.60;99.90;;;;;;5030049;28;20034;-66
2022/12/06 02:49:03;;;;;;;23.15;12.30;;;7.60;99.90;;;;;;5023436;28;20033;-67
2022/12/06 02:51:31;;;;;;;25.70;13.75;;;7.60;99.90;;;;;;5029284;28;20535;-66
2022/12/06 02:54:00;;;;;;;28.05;13.95;;;7.60;99.90;;;;;;5029424;28;20029;-67
2022/12/06 02:56:27;;;;;;;37.28;16.70;;;7.60;99.90;;;;;;5030605;28;20014;-68
2022/12/06 02:58:52;;;;;;;29.30;13.80;;;7.60;99.90;;;;;;5025273;28;20060;-66
2022/12/06 03:01:25;;;;;;;31.83;14.30;;;7.60;99.90;;;;;;5028795;28;20096;-67
2022/12/06 03:04:00;;;;;;;23.73;12.57;;;7.70;99.90;;;;;;5030816;28;20100;-66
2022/12/06 03:06:46;;;;;;;26.83;14.00;;;7.70;99.90;;;;;;5027537;28;20116;-67
2022/12/06 03:09:12;;;;;;;32.10;14.18;;;7.60;99.90;;;;;;5026554;28;20032;-66
2022/12/06 03:12:08;;;;;;;34.00;16.92;;;7.70;99.90;;;;;;5030055;28;20033;-66
2022/12/06 03:14:50;;;;;;;30.55;14.65;;;7.70;99.90;;;;;;5026030;28;20034;-67
2022/12/06 03:17:15;;;;;;;31.35;15.60;;;7.70;99.90;;;;;;5028917;28;20083;-67
2022/12/06 03:19:41;;;;;;;34.13;17.02;;;7.60;99.90;;;;;;5023762;28;20037;-66
2022/12/06 03:22:42;;;;;;;32.58;16.48;;;7.60;99.90;;;;;;5026813;28;20044;-67
2022/12/06 03:25:09;;;;;;;25.98;14.38;;;7.60;99.90;;;;;;5003813;28;20041;-67
2022/12/06 03:27:35;;;;;;;24.73;13.68;;;7.70;99.90;;;;;;5025179;28;20790;-67
2022/12/06 03:30:08;;;;;;;33.40;16.42;;;7.70;99.90;;;;;;5025852;28;20355;-67
2022/12/06 03:32:37;;;;;;;23.58;14.15;;;7.70;99.90;;;;;;5025375;28;20063;-66
2022/12/06 03:35:07;;;;;;;26.52;14.93;;;7.70;99.90;;;;;;5025811;28;20064;-67
2022/12/06 03:37:34;;;;;;;30.80;15.50;;;7.70;99.90;;;;;;5027406;28;20449;-67
2022/12/06 03:40:06;;;;;;;26.52;15.55;;;7.70;99.90;;;;;;5025501;28;20037;-66
2022/12/06 03:42:32;;;;;;;26.40;14.50;;;7.70;99.90;;;;;;5025728;28;20033;-67
2022/12/06 03:44:58;;;;;;;33.65;15.57;;;7.70;99.90;;;;;;5023588;28;20370;-66
2022/12/06 03:47:27;;;;;;;27.88;14.73;;;7.70;99.90;;;;;;5029155;28;20088;-67
2022/12/06 03:49:57;;;;;;;24.48;13.18;;;7.70;99.90;;;;;;5025203;28;20022;-66
2022/12/06 03:52:24;;;;;;;29.58;14.50;;;7.70;99.90;;;;;;5027683;28;20401;-66
2022/12/06 03:54:50;;;;;;;24.05;13.57;;;7.70;99.90;;;;;;5028584;28;20385;-66
2022/12/06 03:57:15;;;;;;;24.92;13.23;;;7.60;99.90;;;;;;5028755;28;20021;-67
2022/12/06 03:59:41;;;;;;;21.48;12.98;;;7.60;99.90;;;;;;5027626;28;20053;-67
2022/12/06 04:02:07;;;;;;;23.60;13.25;;;7.60;99.90;;;;;;5031047;28;20029;-67
2022/12/06 04:04:32;;;;;;;23.13;12.57;;;7.60;99.90;;;;;;5034287;28;20449;-67
2022/12/06 04:06:58;;;;;;;27.27;13.63;;;7.60;99.90;;;;;;5024029;28;20041;-67
2022/12/06 04:12:59;;;;;;;27.10;13.55;;;7.60;99.90;;;;;;5026010;28;20032;-67
2022/12/06 04:14:53;;;;;;;33.15;14.45;;;7.60;99.90;;;;;;5031908;28;20041;-66
2022/12/06 04:20:03;;;;;;;22.80;12.40;;;7.60;99.90;;;;;;5031940;28;20386;-67
2022/12/06 04:25:13;;;;;;;23.88;13.32;;;7.70;99.90;;;;;;5033599;28;20086;-67
2022/12/06 04:38:40;;;;;;;23.52;11.55;;;7.70;99.90;;;;;;5027503;28;20071;-67
2022/12/06 04:41:07;;;;;;;20.90;11.48;;;7.70;99.90;;;;;;5019622;28;20034;-67
2022/12/06 04:43:41;;;;;;;23.95;12.32;;;7.70;99.90;;;;;;5032293;28;20021;-67
2022/12/06 04:46:13;;;;;;;25.08;12.32;;;7.70;99.90;;;;;;5033979;28;20504;-67
2022/12/06 04:48:40;;;;;;;22.30;12.35;;;7.70;99.90;;;;;;5027477;28;20151;-67
2022/12/06 04:51:05;;;;;;;26.65;13.40;;;7.70;99.90;;;;;;5025041;28;20029;-67
2022/12/06 04:53:31;;;;;;;20.13;12.20;;;7.70;99.90;;;;;;5026269;28;20108;-67
2022/12/06 04:55:57;;;;;;;21.10;11.98;;;7.70;99.90;;;;;;5029783;28;20026;-67
2022/12/06 04:58:24;;;;;;;22.67;11.80;;;7.70;99.90;;;;;;5032380;28;20421;-67
2022/12/06 05:00:51;;;;;;;25.50;12.38;;;7.80;99.90;;;;;;5023525;28;20501;-66
2022/12/06 05:03:16;;;;;;;21.10;11.45;;;7.80;99.90;;;;;;5029299;28;20489;-67
2022/12/06 05:05:42;;;;;;;25.45;12.88;;;7.70;99.90;;;;;;5027975;28;20030;-66
2022/12/06 05:08:08;;;;;;;25.05;12.98;;;7.80;99.90;;;;;;5025570;28;20080;-66
2022/12/06 05:10:34;;;;;;;29.80;12.98;;;7.80;99.90;;;;;;5028121;28;20549;-67
2022/12/06 05:13:01;;;;;;;25.13;12.35;;;7.80;99.90;;;;;;5025737;28;20059;-67
2022/12/06 05:15:28;;;;;;;27.60;13.98;;;7.80;99.90;;;;;;5029184;28;20040;-67
2022/12/06 05:17:54;;;;;;;28.23;12.82;;;7.70;99.90;;;;;;5019727;28;20109;-67
2022/12/06 05:20:19;;;;;;;27.70;12.63;;;7.80;99.90;;;;;;5027582;28;20112;-66
2022/12/06 05:22:45;;;;;;;31.08;12.55;;;7.80;99.90;;;;;;5023261;28;20472;-67
2022/12/06 05:25:11;;;;;;;22.23;12.23;;;7.80;99.90;;;;;;5031119;28;20034;-67
2022/12/06 05:27:37;;;;;;;30.95;14.23;;;7.80;99.90;;;;;;5021945;28;20036;-67
2022/12/06 05:30:03;;;;;;;25.85;11.95;;;7.70;99.90;;;;;;5024668;28;20029;-66
2022/12/06 05:32:29;;;;;;;29.13;12.80;;;7.70;99.90;;;;;;5028601;28;20044;-67
2022/12/06 05:34:55;;;;;;;27.73;12.57;;;7.70;99.90;;;;;;5025572;28;20505;-67
2022/12/06 05:37:20;;;;;;;30.55;13.18;;;7.80;99.90;;;;;;5029410;28;20053;-67
2022/12/06 05:39:46;;;;;;;27.65;12.85;;;7.80;99.90;;;;;;5027118;28;20033;-66
2022/12/06 05:42:11;;;;;;;26.77;13.88;;;7.80;99.90;;;;;;5024906;28;20041;-67
2022/12/06 05:44:37;;;;;;;27.55;12.82;;;7.80;99.90;;;;;;5030650;28;20022;-67
2022/12/06 05:47:02;;;;;;;22.10;11.95;;;7.80;99.90;;;;;;5023921;28;20107;-67
2022/12/06 05:49:28;;;;;;;30.52;13.68;;;7.80;99.90;;;;;;5029298;28;20470;-67
2022/12/06 05:51:54;;;;;;;26.27;12.95;;;7.80;99.90;;;;;;5030279;28;20394;-66
2022/12/06 05:54:20;;;;;;;35.15;15.43;;;7.80;99.90;;;;;;5026798;28;20029;-66
2022/12/06 05:56:47;;;;;;;31.65;14.27;;;7.80;99.90;;;;;;5023976;28;20025;-66
2022/12/06 05:59:13;;;;;;;33.05;14.52;;;7.80;99.90;;;;;;5029915;28;20024;-66
2022/12/06 06:01:38;;;;;;;33.75;13.93;;;7.80;99.90;;;;;;5022708;28;20041;-67
2022/12/06 06:04:04;;;;;;;33.38;14.52;;;7.70;99.90;;;;;;5026965;28;20109;-67
2022/12/06 06:06:29;;;;;;;34.85;14.43;;;7.80;99.90;;;;;;5022707;28;20040;-66
2022/12/06 06:08:55;;;;;;;35.85;15.75;;;7.70;99.90;;;;;;5026836;28;20493;-68
2022/12/06 06:11:21;;;;;;;35.58;14.80;;;7.80;99.90;;;;;;5025382;28;20026;-68
2022/12/06 06:13:46;;;;;;;33.85;15.57;;;7.70;99.90;;;;;;5026912;28;20030;-68
2022/12/06 06:16:12;;;;;;;34.00;14.30;;;7.80;99.90;;;;;;5025134;28;20033;-68
2022/12/06 06:18:37;;;;;;;28.95;14.48;;;7.80;99.90;;;;;;5028707;28;20038;-68
2022/12/06 06:21:03;;;;;;;36.97;16.58;;;7.80;99.90;;;;;;5022627;28;20065;-68
2022/12/06 06:23:29;;;;;;;38.88;15.82;;;7.80;99.90;;;;;;5026310;28;20028;-68
2022/12/06 06:25:55;;;;;;;34.72;14.93;;;7.80;99.90;;;;;;5025371;28;20033;-69
2022/12/06 06:28:21;;;;;;;27.98;13.43;;;7.70;99.90;;;;;;5031030;28;20052;-68
2022/12/06 06:30:46;;;;;;;29.73;14.48;;;7.80;99.90;;;;;;5024564;28;20474;-68
2022/12/06 06:33:13;;;;;;;35.13;15.63;;;7.70;99.90;;;;;;5029365;28;20060;-68
2022/12/06 06:35:39;;;;;;;38.88;15.50;;;7.80;99.90;;;;;;5033145;28;20283;-68
2022/12/06 06:38:06;;;;;;;33.65;14.05;;;7.80;99.90;;;;;;5026041;28;20029;-68
2022/12/06 06:40:32;;;;;;;31.30;14.73;;;7.80;99.90;;;;;;5030935;28;20041;-71
2022/12/06 06:43:16;;;;;;;40.70;16.23;;;7.80;99.90;;;;;;5021901;28;20017;-68
2022/12/06 06:45:52;;;;;;;29.55;15.02;;;7.80;99.90;;;;;;5027872;28;20039;-68
2022/12/06 06:48:18;;;;;;;32.28;13.95;;;7.70;99.90;;;;;;5021894;28;20481;-68
2022/12/06 06:50:44;;;;;;;26.77;13.55;;;7.80;99.90;;;;;;5026336;28;20121;-69
2022/12/06 06:53:09;;;;;;;34.17;14.77;;;7.80;99.90;;;;;;5028317;28;20025;-68
2022/12/06 06:55:35;;;;;;;40.28;15.80;;;7.80;99.90;;;;;;5022856;28;20030;-68
2022/12/06 06:58:01;;;;;;;36.38;15.50;;;7.80;99.90;;;;;;5028877;28;20092;-68
2022/12/06 07:00:27;;;;;;;33.78;15.05;;;7.80;99.90;;;;;;5028949;28;20061;-69
2022/12/06 07:02:52;;;;;;;39.05;16.42;;;7.80;99.90;;;;;;5022747;28;20151;-68
2022/12/06 07:05:18;;;;;;;36.28;15.55;;;7.80;99.90;;;;;;5033321;28;20067;-68
2022/12/06 07:07:45;;;;;;;38.13;15.43;;;7.80;99.90;;;;;;5032872;28;20025;-69
2022/12/06 07:10:11;;;;;;;31.73;14.20;;;7.80;99.90;;;;;;5026658;28;20029;-69
2022/12/06 07:12:37;;;;;;;35.75;13.95;;;7.80;99.90;;;;;;5027497;28;20029;-69
2022/12/06 07:15:03;;;;;;;33.25;14.93;;;7.70;99.90;;;;;;5026045;28;20409;-68
2022/12/06 07:17:29;;;;;;;29.50;13.52;;;7.80;99.90;;;;;;5030131;28;20390;-68
2022/12/06 07:19:55;;;;;;;33.08;13.57;;;7.80;99.90;;;;;;5022738;28;20036;-69
2022/12/06 07:22:20;;;;;;;34.70;14.48;;;7.80;99.90;;;;;;5029441;28;20022;-68
2022/12/06 07:24:46;;;;;;;35.25;13.55;;;7.70;99.90;;;;;;5019561;28;20032;-68
2022/12/06 07:27:11;;;;;;;36.58;15.15;;;7.70;99.90;;;;;;5024781;28;20033;-68
2022/12/06 07:29:37;;;;;;;34.17;15.10;;;7.70;99.90;;;;;;5030395;28;20049;-68
2022/12/06 07:32:03;;;;;;;38.13;15.57;;;7.70;99.90;;;;;;5025544;28;20091;-69
2022/12/06 07:34:29;;;;;;;34.03;14.68;;;7.80;99.90;;;;;;5025506;28;20048;-67
2022/12/06 07:36:55;;;;;;;38.53;15.35;;;7.80;99.90;;;;;;5021817;28;20033;-68
2022/12/06 07:39:20;;;;;;;34.42;14.18;;;7.80;99.90;;;;;;5031323;28;20036;-67
2022/12/06 07:47:14;;;;;;;32.55;15.10;;;7.80;99.90;;;;;;5024388;28;20050;-66
2022/12/06 07:49:40;;;;;;;40.47;14.93;;;7.80;99.90;;;;;;5022108;28;20026;-68
2022/12/06 07:52:05;;;;;;;33.78;14.10;;;7.80;99.90;;;;;;5032192;28;20108;-68
2022/12/06 07:54:31;;;;;;;34.35;14.23;;;7.80;99.90;;;;;;5029724;28;20474;-68
2022/12/06 07:56:57;;;;;;;34.55;15.65;;;7.80;99.90;;;;;;5027136;28;20033;-71
2022/12/06 07:59:23;;;;;;;32.97;14.63;;;7.90;99.90;;;;;;5027319;28;20026;-70
2022/12/06 08:01:51;;;;;;;43.00;14.70;;;7.80;99.90;;;;;;5025424;28;20060;-70
2022/12/06 08:04:17;;;;;;;31.92;14.68;;;7.80;99.90;;;;;;5022050;28;20021;-71
2022/12/06 08:06:43;;;;;;;47.15;14.93;;;7.80;99.90;;;;;;5027220;28;20343;-70
2022/12/06 08:09:09;;;;;;;32.33;14.50;;;7.70;99.90;;;;;;5027208;28;20024;-71
2022/12/06 08:11:35;;;;;;;25.75;12.93;;;7.70;99.90;;;;;;5030879;28;20029;-70
2022/12/06 08:14:02;;;;;;;36.08;15.88;;;7.80;99.90;;;;;;5020346;28;20034;-70
2022/12/06 08:16:27;;;;;;;30.35;14.45;;;7.80;99.90;;;;;;5042958;28;20083;-70
2022/12/06 08:18:54;;;;;;;32.38;14.27;;;7.70;99.90;;;;;;5026837;28;20029;-70
2022/12/06 08:21:19;;;;;;;28.42;13.77;;;7.70;99.90;;;;;;5026059;28;20041;-70
2022/12/06 08:23:45;;;;;;;34.55;13.63;;;7.70;99.90;;;;;;4992673;28;20052;-70
2022/12/06 08:26:14;;;;;;;34.85;14.55;;;7.70;99.90;;;;;;5026640;28;20435;-70
2022/12/06 08:28:42;;;;;;;31.27;13.27;;;7.70;99.90;;;;;;5026256;28;20049;-70
2022/12/06 08:31:13;;;;;;;37.75;13.95;;;7.70;99.90;;;;;;5027697;28;20033;-70
2022/12/06 08:33:39;;;;;;;30.20;13.68;;;7.70;99.90;;;;;;5026508;28;22533;-71
2022/12/06 08:36:12;;;;;;;24.55;13.25;;;7.80;99.90;;;;;;5021082;28;20512;-70
2022/12/06 08:38:38;;;;;;;27.48;12.32;;;7.80;99.90;;;;;;5024285;28;20116;-70
2022/12/06 08:41:53;;;;;;;34.30;13.88;;;7.80;99.90;;;;;;5025020;28;20498;-70
2022/12/06 08:43:51;;;;;;;25.83;12.52;;;7.80;99.90;;;;;;5025410;28;20029;-70
2022/12/06 08:46:17;;;;;;;29.05;13.38;;;7.80;99.90;;;;;;5027647;28;20124;-70
2022/12/06 08:48:42;;;;;;;31.77;13.40;;;7.90;99.90;;;;;;5022674;28;20087;-70
2022/12/06 08:51:08;;;;;;;27.65;12.55;;;7.90;99.90;;;;;;5027348;28;20037;-70
2022/12/06 08:53:33;;;;;;;29.17;12.80;;;7.90;99.90;;;;;;5020933;28;20033;-70
2022/12/06 08:55:59;;;;;;;23.50;11.73;;;7.90;99.90;;;;;;5027271;28;20378;-70
2022/12/06 08:58:24;;;;;;;27.05;12.35;;;7.90;99.90;;;;;;5026161;28;20037;-71
2022/12/06 09:00:50;;;;;;;23.10;11.85;;;7.90;99.90;;;;;;5026021;28;20033;-70
2022/12/06 09:03:15;;;;;;;24.30;11.75;;;7.90;99.90;;;;;;5021092;28;20491;-70
2022/12/06 09:05:41;;;;;;;27.60;12.90;;;8.00;99.90;;;;;;5026326;28;20029;-70
2022/12/06 09:08:07;;;;;;;27.02;12.45;;;8.00;99.90;;;;;;5022047;28;20030;-70
2022/12/06 09:10:32;;;;;;;25.95;12.40;;;8.00;99.90;;;;;;5026222;28;20040;-71
2022/12/06 09:12:58;;;;;;;21.20;11.70;;;8.00;99.90;;;;;;5022174;28;20060;-71
2022/12/06 09:15:23;;;;;;;23.90;11.90;;;8.00;99.90;;;;;;5026122;28;20172;-71
2022/12/06 09:17:49;;;;;;;24.17;11.65;;;8.00;99.90;;;;;;5026063;28;20527;-71
2022/12/06 09:20:17;;;;;;;30.27;12.40;;;8.00;99.90;;;;;;5023209;28;20086;-71
2022/12/06 09:22:43;;;;;;;25.30;11.18;;;8.00;99.90;;;;;;5022141;28;20037;-71
2022/12/06 09:25:09;;;;;;;27.67;11.85;;;8.00;99.90;;;;;;5025751;28;20071;-70
2022/12/06 09:27:35;;;;;;;21.20;11.50;;;8.00;99.90;;;;;;5020918;28;20037;-70
2022/12/06 09:30:00;;;;;;;22.50;12.32;;;8.10;99.90;;;;;;5025869;28;20029;-69
2022/12/06 09:32:26;;;;;;;23.45;12.25;;;8.00;99.90;;;;;;5024506;28;20017;-71
2022/12/06 09:34:52;;;;;;;26.60;12.80;;;8.10;99.90;;;;;;5026665;28;20575;-70
2022/12/06 09:37:17;;;;;;;20.45;11.82;;;8.10;99.90;;;;;;5026178;28;20032;-70
2022/12/06 09:39:48;;;;;;;22.00;10.45;;;8.00;99.90;;;;;;5027531;28;20025;-70
2022/12/06 09:42:54;;;;;;;26.65;11.30;;;8.00;99.90;;;;;;5027443;28;20025;-70
2022/12/06 09:45:49;;;;;;;23.70;11.50;;;8.00;99.90;;;;;;5024777;28;20478;-70
2022/12/06 09:48:41;;;;;;;24.58;11.32;;;8.00;99.90;;;;;;5020894;28;20021;-70
2022/12/06 09:51:31;;;;;;;20.65;10.43;;;8.10;99.90;;;;;;5026164;28;20033;-70
2022/12/06 09:54:19;;;;;;;19.45;10.40;;;8.00;99.90;;;;;;5021919;28;20022;-69
2022/12/06 09:56:57;;;;;;;24.25;10.95;;;8.10;99.90;;;;;;5025234;28;20073;-70
2022/12/06 09:59:46;;;;;;;21.88;11.50;;;8.20;99.90;;;;;;5024664;28;20029;-70
2022/12/06 10:02:36;;;;;;;18.10;10.10;;;8.20;99.90;;;;;;5026533;28;20064;-70
2022/12/06 10:05:31;;;;;;;25.60;10.68;;;8.20;99.90;;;;;;5028602;28;20021;-70
2022/12/06 10:08:13;;;;;;;23.83;10.43;;;8.20;99.90;;;;;;5029627;28;20095;-70
2022/12/06 10:10:52;;;;;;;25.17;11.13;;;8.20;99.90;;;;;;5028610;28;20528;-70
2022/12/06 10:13:33;;;;;;;20.27;10.57;;;8.20;99.90;;;;;;5044255;28;20036;-71
2022/12/06 10:16:16;;;;;;;19.75;9.98;;;8.10;99.90;;;;;;5031009;28;20056;-70
2022/12/06 10:19:05;;;;;;;21.20;9.63;;;8.10;99.90;;;;;;5042761;28;20172;-70
2022/12/06 10:21:58;;;;;;;20.90;9.52;;;8.10;99.90;;;;;;5028556;28;20052;-70
2022/12/06 10:24:32;;;;;;;;;;;8.20;99.90;;;;;;5024690;28;20028;-70
2022/12/06 10:27:48;;;;;;;20.38;8.90;;;8.20;99.90;;;;;;5031138;28;19909;-69
2022/12/06 10:30:15;;;;;;;18.65;10.25;;;8.30;99.90;;;;;;5014679;28;20034;-72
2022/12/06 10:32:52;;;;;;;17.80;9.80;;;8.40;99.90;;;;;;5026560;28;20512;-72
2022/12/06 10:35:30;;;;;;;19.52;9.35;;;8.30;99.90;;;;;;5029159;28;20079;-72
2022/12/06 10:38:33;;;;;;;16.92;8.10;;;8.30;99.90;;;;;;5022568;28;20025;-71
2022/12/06 10:41:21;;;;;;;16.67;9.27;;;8.30;99.90;;;;;;5041374;28;20128;-71
2022/12/06 10:44:10;;;;;;;15.48;8.40;;;8.30;99.90;;;;;;5027708;28;20018;-71
2022/12/06 10:49:47;;;;;;;17.13;8.32;;;8.30;99.90;;;;;;5029581;28;20036;-71
2022/12/06 10:52:21;;;;;;;13.77;7.90;;;8.30;99.90;;;;;;5029363;28;20044;-72
2022/12/06 10:55:08;;;;;;;18.15;7.45;;;8.30;99.90;;;;;;5030260;28;20122;-71
2022/12/06 10:57:49;;;;;;;14.50;6.97;;;8.20;99.90;;;;;;5023523;28;20473;-71
2022/12/06 11:00:19;;;;;;;13.05;7.22;;;8.20;99.90;;;;;;5025282;28;20017;-70
2022/12/06 11:02:59;;;;;;;12.98;7.72;;;8.20;99.90;;;;;;5045715;28;20128;-72
2022/12/06 11:05:47;;;;;;;16.70;7.25;;;8.20;99.90;;;;;;5024033;28;20052;-72
2022/12/06 11:08:43;;;;;;;12.23;6.80;;;8.20;99.90;;;;;;5021924;28;20450;-71
2022/12/06 11:11:18;;;;;;;10.25;6.18;;;8.20;99.90;;;;;;5027982;28;20059;-72
2022/12/06 11:13:52;;;;;;;11.93;6.75;;;8.30;99.90;;;;;;5056966;28;20025;-73
2022/12/06 11:16:35;;;;;;;10.90;5.88;;;8.30;99.90;;;;;;5020837;28;20033;-72
2022/12/06 11:19:25;;;;;;;9.07;5.55;;;8.30;99.90;;;;;;5028122;28;20055;-71
2022/12/06 11:22:15;;;;;;;13.85;5.60;;;8.30;99.90;;;;;;5026884;28;20551;-70
2022/12/06 11:25:11;;;;;;;9.60;5.75;;;8.30;99.90;;;;;;5026653;28;20029;-70
2022/12/06 11:27:55;;;;;;;14.05;6.55;;;8.20;99.90;;;;;;5027672;28;20041;-72
2022/12/06 11:30:21;;;;;;;10.63;6.07;;;8.30;99.90;;;;;;5061569;28;20021;-72
2022/12/06 11:32:50;;;;;;;10.30;5.05;;;8.20;99.90;;;;;;5028906;28;20465;-72
2022/12/06 11:35:26;;;;;;;10.38;5.90;;;8.20;99.90;;;;;;5025373;28;20470;-73
2022/12/06 11:37:56;;;;;;;9.80;5.85;;;8.30;99.90;;;;;;5025393;28;20026;-72
2022/12/06 11:40:27;;;;;;;10.07;5.68;;;8.30;99.90;;;;;;5025768;28;20021;-72
2022/12/06 11:42:53;;;;;;;10.68;5.72;;;8.40;99.90;;;;;;5022463;28;20035;-71
2022/12/06 11:45:26;;;;;;;10.63;5.63;;;8.40;99.90;;;;;;5028619;28;20013;-72
2022/12/06 11:47:54;;;;;;;10.40;5.35;;;8.50;99.90;;;;;;5024863;28;20036;-72
2022/12/06 11:50:21;;;;;;;9.82;5.70;;;8.50;99.90;;;;;;5029406;28;20101;-71
2022/12/06 11:53:01;;;;;;;8.77;5.65;;;8.60;99.90;;;;;;5020366;28;20080;-72
2022/12/06 11:55:33;;;;;;;11.95;6.20;;;8.60;99.90;;;;;;5027686;28;20025;-71
2022/12/06 11:58:15;;;;;;;8.93;5.45;;;8.60;99.90;;;;;;5024038;28;20501;-71
2022/12/06 12:01:03;;;;;;;16.07;6.60;;;8.70;99.90;;;;;;5028552;28;20452;-71
2022/12/06 12:03:35;;;;;;;9.52;5.40;;;8.70;99.90;;;;;;5023992;28;20520;-72
2022/12/06 12:06:14;;;;;;;10.82;5.57;;;8.70;99.90;;;;;;5026547;28;20013;-72
2022/12/06 12:08:39;;;;;;;8.13;5.35;;;8.60;99.90;;;;;;5024026;28;20115;-72
2022/12/06 12:11:05;;;;;;;9.57;5.70;;;8.70;99.90;;;;;;5027496;28;20053;-71
2022/12/06 12:13:43;;;;;;;9.73;6.05;;;8.80;99.90;;;;;;5023772;28;20390;-71
2022/12/06 12:16:15;;;;;;;14.50;5.90;;;8.80;99.90;;;;;;5027281;28;20030;-72
2022/12/06 12:18:52;;;;;;;8.43;5.90;;;8.80;99.90;;;;;;5024290;28;20041;-72
2022/12/06 12:21:32;;;;;;;9.55;5.88;;;8.80;99.90;;;;;;5026700;28;20060;-73
2022/12/06 12:23:59;;;;;;;6.55;5.10;;;8.80;99.90;;;;;;5055469;28;20096;-72
2022/12/06 12:26:35;;;;;;;9.77;5.90;;;8.80;99.90;;;;;;5025867;28;20065;-72
2022/12/06 12:29:10;;;;;;;9.38;5.32;;;8.70;99.90;;;;;;5028659;28;20033;-72
2022/12/06 12:31:55;;;;;;;10.43;6.10;;;8.70;99.90;;;;;;5021180;28;20018;-72
2022/12/06 12:34:26;;;;;;;9.18;5.95;;;8.70;99.90;;;;;;5028327;28;20029;-70
2022/12/06 12:37:03;;;;;;;11.30;6.85;;;8.70;99.90;;;;;;5017042;28;20426;-68
2022/12/06 12:39:43;;;;;;;8.20;5.93;;;8.70;99.90;;;;;;5025290;28;20443;-68
2022/12/06 12:42:27;;;;;;;9.15;5.53;;;8.70;99.90;;;;;;5022132;28;20069;-68
2022/12/06 12:44:57;;;;;;;8.57;4.80;;;8.60;99.90;;;;;;5025204;28;20036;-69
2022/12/06 12:47:23;;;;;;;8.90;4.57;;;8.60;99.90;;;;;;5029511;28;20592;-68
2022/12/06 12:50:17;;;;;;;7.43;4.97;;;8.70;99.90;;;;;;5021025;28;20064;-69
2022/12/06 12:52:42;;;;;;;6.78;4.90;;;8.50;99.90;;;;;;5024881;28;20021;-69
2022/12/06 12:55:25;;;;;;;9.15;5.13;;;8.60;99.90;;;;;;5024380;28;20072;-70
2022/12/06 12:57:53;;;;;;;7.13;4.68;;;8.60;99.90;;;;;;5025731;28;20024;-69
2022/12/06 13:00:22;;;;;;;10.55;4.75;;;8.70;99.90;;;;;;5024314;28;20032;-68
2022/12/06 13:03:08;;;;;;;7.88;4.82;;;8.70;99.90;;;;;;5022632;28;20076;-69
2022/12/06 13:05:36;;;;;;;5.68;3.78;;;8.70;99.90;;;;;;5026060;28;20064;-69
2022/12/06 13:08:05;;;;;;;8.73;4.65;;;8.60;99.90;;;;;;5021651;28;20017;-70
2022/12/06 13:10:36;;;;;;;5.97;4.05;;;8.50;99.90;;;;;;5024159;28;20033;-69
2022/12/06 13:13:18;;;;;;;6.18;4.63;;;8.50;99.90;;;;;;5024914;28;20037;-69
2022/12/06 13:15:49;;;;;;;6.80;4.15;;;8.50;99.90;;;;;;5027448;28;20048;-69
2022/12/06 13:18:24;;;;;;;7.95;4.82;;;8.50;99.90;;;;;;5025647;28;20021;-69
2022/12/06 13:20:52;;;;;;;8.57;4.32;;;8.60;99.90;;;;;;5020071;28;20457;-69
2022/12/06 13:23:20;;;;;;;11.15;4.18;;;8.70;99.90;;;;;;5021866;28;20021;-68
2022/12/06 13:26:02;;;;;;;9.40;3.45;;;8.50;99.90;;;;;;5030405;28;20026;-69
2022/12/06 13:28:32;;;;;;;5.28;2.90;;;8.50;99.90;;;;;;5021688;28;20056;-70